sensor_id;sensor_type;location;lat;lon;timestamp;P1;durP1;ratioP1;P2;durP2;ratioP2
34828;SDS011;21042;47.620;12.188;2023-05-10T00:00:32;1.35;;;0.30;;
34828;SDS011;21042;47.620;12.188;2023-05-10T00:02:59;2.45;;;0.30;;
34828;SDS011;21042;47.620;12.188;2023-05-10T00:05:26;0.50;;;0.40;;
34828;SDS011;21042;47.620;12.188;2023-05-10T00:07:52;0.25;;;0.25;;
34828;SDS011;21042;47.620;12.188;2023-05-10T00:10:19;0.43;;;0.35;;
34828;SDS011;21042;47.620;12.188;2023-05-10T00:12:46;0.40;;;0.30;;
34828;SDS011;21042;47.620;12.188;2023-05-10T00:15:12;0.50;;;0.35;;
34828;SDS011;21042;47.620;12.188;2023-05-10T00:17:39;1.58;;;0.28;;
34828;SDS011;21042;47.620;12.188;2023-05-10T00:20:06;0.95;;;0.40;;
34828;SDS011;21042;47.620;12.188;2023-05-10T00:22:33;2.28;;;0.30;;
34828;SDS011;21042;47.620;12.188;2023-05-10T00:25:00;1.65;;;0.60;;
34828;SDS011;21042;47.620;12.188;2023-05-10T00:27:27;0.55;;;0.45;;
34828;SDS011;21042;47.620;12.188;2023-05-10T00:29:54;4.05;;;0.50;;
34828;SDS011;21042;47.620;12.188;2023-05-10T00:32:20;0.90;;;0.40;;
34828;SDS011;21042;47.620;12.188;2023-05-10T00:34:47;0.60;;;0.50;;
34828;SDS011;21042;47.620;12.188;2023-05-10T00:37:14;1.27;;;0.50;;
34828;SDS011;21042;47.620;12.188;2023-05-10T00:39:41;3.67;;;0.50;;
34828;SDS011;21042;47.620;12.188;2023-05-10T00:42:08;0.80;;;0.63;;
34828;SDS011;21042;47.620;12.188;2023-05-10T00:44:34;1.85;;;0.60;;
34828;SDS011;21042;47.620;12.188;2023-05-10T00:47:01;1.13;;;0.77;;
34828;SDS011;21042;47.620;12.188;2023-05-10T00:49:28;1.10;;;0.70;;
34828;SDS011;21042;47.620;12.188;2023-05-10T00:51:55;1.63;;;0.55;;
34828;SDS011;21042;47.620;12.188;2023-05-10T00:54:22;0.60;;;0.60;;
34828;SDS011;21042;47.620;12.188;2023-05-10T00:59:17;0.55;;;0.50;;
34828;SDS011;21042;47.620;12.188;2023-05-10T01:04:12;0.60;;;0.38;;
34828;SDS011;21042;47.620;12.188;2023-05-10T01:06:41;0.77;;;0.50;;
34828;SDS011;21042;47.620;12.188;2023-05-10T01:09:08;2.05;;;0.50;;
34828;SDS011;21042;47.620;12.188;2023-05-10T01:11:35;1.55;;;0.55;;
34828;SDS011;21042;47.620;12.188;2023-05-10T01:14:04;0.80;;;0.40;;
34828;SDS011;21042;47.620;12.188;2023-05-10T01:16:32;0.73;;;0.47;;
34828;SDS011;21042;47.620;12.188;2023-05-10T01:19:06;0.90;;;0.60;;
34828;SDS011;21042;47.620;12.188;2023-05-10T01:24:45;0.73;;;0.63;;
34828;SDS011;21042;47.620;12.188;2023-05-10T01:33:09;6.75;;;0.82;;
34828;SDS011;21042;47.620;12.188;2023-05-10T01:35:46;4.78;;;0.68;;
34828;SDS011;21042;47.620;12.188;2023-05-10T01:38:51;3.17;;;0.55;;
34828;SDS011;21042;47.620;12.188;2023-05-10T01:44:07;3.20;;;0.75;;
34828;SDS011;21042;47.620;12.188;2023-05-10T01:47:01;2.83;;;0.80;;
34828;SDS011;21042;47.620;12.188;2023-05-10T01:49:40;3.85;;;0.80;;
34828;SDS011;21042;47.620;12.188;2023-05-10T01:52:14;2.38;;;0.70;;
34828;SDS011;21042;47.620;12.188;2023-05-10T01:54:49;2.30;;;0.90;;
34828;SDS011;21042;47.620;12.188;2023-05-10T01:57:20;3.65;;;0.80;;
34828;SDS011;21042;47.620;12.188;2023-05-10T01:59:51;0.50;;;0.50;;
34828;SDS011;21042;47.620;12.188;2023-05-10T02:02:20;2.03;;;0.85;;
34828;SDS011;21042;47.620;12.188;2023-05-10T02:04:47;0.90;;;0.60;;
34828;SDS011;21042;47.620;12.188;2023-05-10T02:07:15;1.83;;;0.73;;
34828;SDS011;21042;47.620;12.188;2023-05-10T02:09:44;5.00;;;0.90;;
34828;SDS011;21042;47.620;12.188;2023-05-10T02:12:14;3.95;;;0.90;;
34828;SDS011;21042;47.620;12.188;2023-05-10T02:14:42;1.10;;;0.90;;
34828;SDS011;21042;47.620;12.188;2023-05-10T02:17:10;0.73;;;0.70;;
34828;SDS011;21042;47.620;12.188;2023-05-10T02:19:40;0.80;;;0.80;;
34828;SDS011;21042;47.620;12.188;2023-05-10T02:22:08;1.15;;;1.00;;
34828;SDS011;21042;47.620;12.188;2023-05-10T02:24:36;1.92;;;1.15;;
34828;SDS011;21042;47.620;12.188;2023-05-10T02:27:03;2.45;;;0.88;;
34828;SDS011;21042;47.620;12.188;2023-05-10T02:29:31;0.80;;;0.75;;
34828;SDS011;21042;47.620;12.188;2023-05-10T02:31:58;1.55;;;0.70;;
34828;SDS011;21042;47.620;12.188;2023-05-10T02:34:26;2.40;;;0.77;;
34828;SDS011;21042;47.620;12.188;2023-05-10T02:36:54;1.35;;;0.80;;
34828;SDS011;21042;47.620;12.188;2023-05-10T02:39:22;0.80;;;0.80;;
34828;SDS011;21042;47.620;12.188;2023-05-10T02:41:50;3.22;;;0.60;;
34828;SDS011;21042;47.620;12.188;2023-05-10T02:44:19;0.43;;;0.40;;
34828;SDS011;21042;47.620;12.188;2023-05-10T02:46:47;1.70;;;0.68;;
34828;SDS011;21042;47.620;12.188;2023-05-10T02:49:14;4.82;;;0.77;;
34828;SDS011;21042;47.620;12.188;2023-05-10T02:54:15;1.08;;;0.70;;
34828;SDS011;21042;47.620;12.188;2023-05-10T02:56:51;0.60;;;0.60;;
34828;SDS011;21042;47.620;12.188;2023-05-10T02:59:24;1.85;;;0.82;;
34828;SDS011;21042;47.620;12.188;2023-05-10T03:01:50;1.67;;;0.90;;
34828;SDS011;21042;47.620;12.188;2023-05-10T03:04:17;1.88;;;1.10;;
34828;SDS011;21042;47.620;12.188;2023-05-10T03:06:44;2.80;;;1.02;;
34828;SDS011;21042;47.620;12.188;2023-05-10T03:09:11;2.90;;;0.90;;
34828;SDS011;21042;47.620;12.188;2023-05-10T03:12:00;4.05;;;1.00;;
34828;SDS011;21042;47.620;12.188;2023-05-10T03:14:40;5.28;;;0.98;;
34828;SDS011;21042;47.620;12.188;2023-05-10T03:17:17;3.70;;;0.98;;
34828;SDS011;21042;47.620;12.188;2023-05-10T03:19:56;3.03;;;0.85;;
34828;SDS011;21042;47.620;12.188;2023-05-10T03:22:25;2.92;;;1.15;;
34828;SDS011;21042;47.620;12.188;2023-05-10T03:24:56;0.95;;;0.73;;
34828;SDS011;21042;47.620;12.188;2023-05-10T03:27:27;3.63;;;1.00;;
34828;SDS011;21042;47.620;12.188;2023-05-10T03:29:55;5.53;;;1.00;;
34828;SDS011;21042;47.620;12.188;2023-05-10T03:32:23;33.88;;;2.70;;
34828;SDS011;21042;47.620;12.188;2023-05-10T03:34:50;1.65;;;0.90;;
34828;SDS011;21042;47.620;12.188;2023-05-10T03:37:17;4.50;;;1.25;;
34828;SDS011;21042;47.620;12.188;2023-05-10T03:39:44;2.72;;;1.15;;
34828;SDS011;21042;47.620;12.188;2023-05-10T03:42:11;1.90;;;1.13;;
34828;SDS011;21042;47.620;12.188;2023-05-10T03:44:41;2.33;;;1.00;;
34828;SDS011;21042;47.620;12.188;2023-05-10T03:47:08;3.80;;;1.17;;
34828;SDS011;21042;47.620;12.188;2023-05-10T03:49:35;2.05;;;1.08;;
34828;SDS011;21042;47.620;12.188;2023-05-10T03:52:02;1.98;;;1.15;;
34828;SDS011;21042;47.620;12.188;2023-05-10T03:54:30;4.38;;;0.63;;
34828;SDS011;21042;47.620;12.188;2023-05-10T03:56:57;4.50;;;0.90;;
34828;SDS011;21042;47.620;12.188;2023-05-10T03:59:24;2.38;;;0.50;;
34828;SDS011;21042;47.620;12.188;2023-05-10T04:01:51;0.52;;;0.40;;
34828;SDS011;21042;47.620;12.188;2023-05-10T04:04:18;1.60;;;0.70;;
34828;SDS011;21042;47.620;12.188;2023-05-10T04:06:48;0.40;;;0.40;;
34828;SDS011;21042;47.620;12.188;2023-05-10T04:09:15;2.25;;;0.85;;
34828;SDS011;21042;47.620;12.188;2023-05-10T04:11:43;0.80;;;0.50;;
34828;SDS011;21042;47.620;12.188;2023-05-10T04:14:10;2.63;;;0.60;;
34828;SDS011;21042;47.620;12.188;2023-05-10T04:16:36;4.97;;;0.40;;
34828;SDS011;21042;47.620;12.188;2023-05-10T04:19:03;1.98;;;0.40;;
34828;SDS011;21042;47.620;12.188;2023-05-10T04:21:30;2.05;;;0.60;;
34828;SDS011;21042;47.620;12.188;2023-05-10T04:23:57;4.50;;;0.80;;
34828;SDS011;21042;47.620;12.188;2023-05-10T04:26:24;4.15;;;1.00;;
34828;SDS011;21042;47.620;12.188;2023-05-10T04:28:51;3.35;;;1.10;;
34828;SDS011;21042;47.620;12.188;2023-05-10T04:31:18;1.88;;;1.48;;
34828;SDS011;21042;47.620;12.188;2023-05-10T04:33:45;2.20;;;1.17;;
34828;SDS011;21042;47.620;12.188;2023-05-10T04:36:11;0.95;;;0.77;;
34828;SDS011;21042;47.620;12.188;2023-05-10T04:38:38;3.72;;;0.98;;
34828;SDS011;21042;47.620;12.188;2023-05-10T04:41:06;2.88;;;0.80;;
34828;SDS011;21042;47.620;12.188;2023-05-10T04:43:33;1.25;;;0.70;;
34828;SDS011;21042;47.620;12.188;2023-05-10T04:46:00;0.90;;;0.38;;
34828;SDS011;21042;47.620;12.188;2023-05-10T04:48:27;0.45;;;0.22;;
34828;SDS011;21042;47.620;12.188;2023-05-10T04:50:54;1.70;;;0.45;;
34828;SDS011;21042;47.620;12.188;2023-05-10T04:53:21;1.05;;;0.57;;
34828;SDS011;21042;47.620;12.188;2023-05-10T04:55:48;0.88;;;0.50;;
34828;SDS011;21042;47.620;12.188;2023-05-10T04:58:15;1.08;;;0.70;;
34828;SDS011;21042;47.620;12.188;2023-05-10T05:00:41;4.38;;;0.90;;
34828;SDS011;21042;47.620;12.188;2023-05-10T05:03:08;2.40;;;1.10;;
34828;SDS011;21042;47.620;12.188;2023-05-10T05:08:02;0.95;;;0.68;;
34828;SDS011;21042;47.620;12.188;2023-05-10T05:10:29;4.40;;;1.20;;
34828;SDS011;21042;47.620;12.188;2023-05-10T05:12:56;0.90;;;0.77;;
34828;SDS011;21042;47.620;12.188;2023-05-10T05:15:23;2.97;;;0.95;;
34828;SDS011;21042;47.620;12.188;2023-05-10T05:17:49;1.60;;;0.77;;
34828;SDS011;21042;47.620;12.188;2023-05-10T05:20:16;4.20;;;1.20;;
34828;SDS011;21042;47.620;12.188;2023-05-10T05:22:45;3.15;;;1.20;;
34828;SDS011;21042;47.620;12.188;2023-05-10T05:25:11;1.25;;;1.10;;
34828;SDS011;21042;47.620;12.188;2023-05-10T05:27:38;4.18;;;1.23;;
34828;SDS011;21042;47.620;12.188;2023-05-10T05:30:05;2.10;;;1.42;;
34828;SDS011;21042;47.620;12.188;2023-05-10T05:32:33;3.13;;;0.93;;
34828;SDS011;21042;47.620;12.188;2023-05-10T05:35:00;1.70;;;1.00;;
34828;SDS011;21042;47.620;12.188;2023-05-10T05:37:26;1.10;;;0.57;;
34828;SDS011;21042;47.620;12.188;2023-05-10T05:39:53;1.65;;;0.75;;
34828;SDS011;21042;47.620;12.188;2023-05-10T05:42:21;1.10;;;0.80;;
34828;SDS011;21042;47.620;12.188;2023-05-10T05:44:47;5.90;;;1.45;;
34828;SDS011;21042;47.620;12.188;2023-05-10T05:47:14;2.20;;;1.08;;
34828;SDS011;21042;47.620;12.188;2023-05-10T05:49:41;5.80;;;1.45;;
34828;SDS011;21042;47.620;12.188;2023-05-10T05:52:08;7.55;;;2.70;;
34828;SDS011;21042;47.620;12.188;2023-05-10T05:54:34;6.25;;;2.63;;
34828;SDS011;21042;47.620;12.188;2023-05-10T05:57:01;9.00;;;2.20;;
34828;SDS011;21042;47.620;12.188;2023-05-10T05:59:28;7.78;;;2.20;;
34828;SDS011;21042;47.620;12.188;2023-05-10T06:01:55;4.72;;;2.10;;
34828;SDS011;21042;47.620;12.188;2023-05-10T06:04:22;4.25;;;2.38;;
34828;SDS011;21042;47.620;12.188;2023-05-10T06:06:48;4.95;;;1.60;;
34828;SDS011;21042;47.620;12.188;2023-05-10T06:09:15;3.53;;;1.67;;
34828;SDS011;21042;47.620;12.188;2023-05-10T06:11:42;4.35;;;1.70;;
34828;SDS011;21042;47.620;12.188;2023-05-10T06:14:08;2.63;;;1.60;;
34828;SDS011;21042;47.620;12.188;2023-05-10T06:19:03;4.80;;;1.95;;
34828;SDS011;21042;47.620;12.188;2023-05-10T06:21:29;3.15;;;1.55;;
34828;SDS011;21042;47.620;12.188;2023-05-10T06:23:56;2.60;;;1.40;;
34828;SDS011;21042;47.620;12.188;2023-05-10T06:26:23;5.10;;;1.88;;
34828;SDS011;21042;47.620;12.188;2023-05-10T06:28:51;3.78;;;1.08;;
34828;SDS011;21042;47.620;12.188;2023-05-10T06:31:17;2.20;;;0.93;;
34828;SDS011;21042;47.620;12.188;2023-05-10T06:33:44;3.08;;;1.00;;
34828;SDS011;21042;47.620;12.188;2023-05-10T06:36:11;2.70;;;1.20;;
34828;SDS011;21042;47.620;12.188;2023-05-10T06:38:39;1.95;;;1.00;;
34828;SDS011;21042;47.620;12.188;2023-05-10T06:41:06;6.82;;;1.00;;
34828;SDS011;21042;47.620;12.188;2023-05-10T06:43:32;5.63;;;0.93;;
34828;SDS011;21042;47.620;12.188;2023-05-10T06:45:59;1.67;;;0.77;;
34828;SDS011;21042;47.620;12.188;2023-05-10T06:48:26;2.20;;;0.68;;
34828;SDS011;21042;47.620;12.188;2023-05-10T06:50:53;1.85;;;0.80;;
34828;SDS011;21042;47.620;12.188;2023-05-10T06:53:19;2.47;;;0.65;;
34828;SDS011;21042;47.620;12.188;2023-05-10T06:55:46;1.35;;;0.70;;
34828;SDS011;21042;47.620;12.188;2023-05-10T06:58:15;2.55;;;0.80;;
34828;SDS011;21042;47.620;12.188;2023-05-10T07:00:42;4.68;;;0.75;;
34828;SDS011;21042;47.620;12.188;2023-05-10T07:03:10;4.65;;;1.02;;
34828;SDS011;21042;47.620;12.188;2023-05-10T07:05:37;2.33;;;0.43;;
34828;SDS011;21042;47.620;12.188;2023-05-10T07:08:04;1.77;;;0.60;;
34828;SDS011;21042;47.620;12.188;2023-05-10T07:10:30;2.03;;;0.70;;
34828;SDS011;21042;47.620;12.188;2023-05-10T07:12:57;4.28;;;0.70;;
34828;SDS011;21042;47.620;12.188;2023-05-10T07:15:24;2.83;;;0.75;;
34828;SDS011;21042;47.620;12.188;2023-05-10T07:17:51;4.72;;;0.68;;
34828;SDS011;21042;47.620;12.188;2023-05-10T07:20:18;4.75;;;0.70;;
34828;SDS011;21042;47.620;12.188;2023-05-10T07:22:45;3.28;;;0.77;;
34828;SDS011;21042;47.620;12.188;2023-05-10T07:25:12;6.30;;;0.93;;
34828;SDS011;21042;47.620;12.188;2023-05-10T07:27:39;2.20;;;0.50;;
34828;SDS011;21042;47.620;12.188;2023-05-10T07:30:05;3.83;;;0.50;;
34828;SDS011;21042;47.620;12.188;2023-05-10T07:32:33;1.42;;;0.60;;
34828;SDS011;21042;47.620;12.188;2023-05-10T07:35:00;13.85;;;0.65;;
34828;SDS011;21042;47.620;12.188;2023-05-10T07:37:27;1.25;;;0.60;;
34828;SDS011;21042;47.620;12.188;2023-05-10T07:39:54;5.82;;;0.52;;
34828;SDS011;21042;47.620;12.188;2023-05-10T07:42:20;3.42;;;0.43;;
34828;SDS011;21042;47.620;12.188;2023-05-10T07:44:47;2.20;;;0.63;;
34828;SDS011;21042;47.620;12.188;2023-05-10T07:47:14;5.53;;;0.60;;
34828;SDS011;21042;47.620;12.188;2023-05-10T07:49:40;2.67;;;0.60;;
34828;SDS011;21042;47.620;12.188;2023-05-10T07:52:07;0.85;;;0.38;;
34828;SDS011;21042;47.620;12.188;2023-05-10T07:54:34;2.78;;;0.60;;
34828;SDS011;21042;47.620;12.188;2023-05-10T07:57:00;3.42;;;0.50;;
34828;SDS011;21042;47.620;12.188;2023-05-10T07:59:27;4.28;;;0.57;;
34828;SDS011;21042;47.620;12.188;2023-05-10T08:01:54;1.73;;;0.43;;
34828;SDS011;21042;47.620;12.188;2023-05-10T08:04:21;3.63;;;1.02;;
34828;SDS011;21042;47.620;12.188;2023-05-10T08:06:48;2.55;;;0.60;;
34828;SDS011;21042;47.620;12.188;2023-05-10T08:09:15;2.53;;;0.73;;
34828;SDS011;21042;47.620;12.188;2023-05-10T08:11:42;1.85;;;0.32;;
34828;SDS011;21042;47.620;12.188;2023-05-10T08:14:08;6.15;;;0.70;;
34828;SDS011;21042;47.620;12.188;2023-05-10T08:16:36;3.78;;;0.45;;
34828;SDS011;21042;47.620;12.188;2023-05-10T08:19:02;2.53;;;0.50;;
34828;SDS011;21042;47.620;12.188;2023-05-10T08:21:29;4.30;;;0.65;;
34828;SDS011;21042;47.620;12.188;2023-05-10T08:23:57;2.28;;;0.57;;
34828;SDS011;21042;47.620;12.188;2023-05-10T08:26:24;4.10;;;0.55;;
34828;SDS011;21042;47.620;12.188;2023-05-10T08:28:51;1.52;;;0.30;;
34828;SDS011;21042;47.620;12.188;2023-05-10T08:31:17;2.53;;;0.52;;
34828;SDS011;21042;47.620;12.188;2023-05-10T08:33:44;1.00;;;0.35;;
34828;SDS011;21042;47.620;12.188;2023-05-10T08:36:11;3.90;;;0.60;;
34828;SDS011;21042;47.620;12.188;2023-05-10T08:38:40;2.30;;;0.50;;
34828;SDS011;21042;47.620;12.188;2023-05-10T08:41:07;2.30;;;0.50;;
34828;SDS011;21042;47.620;12.188;2023-05-10T08:43:33;2.80;;;0.73;;
34828;SDS011;21042;47.620;12.188;2023-05-10T08:46:02;1.15;;;0.60;;
34828;SDS011;21042;47.620;12.188;2023-05-10T08:48:31;4.78;;;0.50;;
34828;SDS011;21042;47.620;12.188;2023-05-10T08:51:00;2.05;;;0.50;;
34828;SDS011;21042;47.620;12.188;2023-05-10T08:53:29;3.70;;;0.40;;
34828;SDS011;21042;47.620;12.188;2023-05-10T08:55:57;2.30;;;0.55;;
34828;SDS011;21042;47.620;12.188;2023-05-10T08:58:24;1.77;;;0.80;;
34828;SDS011;21042;47.620;12.188;2023-05-10T09:00:51;4.10;;;0.80;;
34828;SDS011;21042;47.620;12.188;2023-05-10T09:03:19;1.15;;;0.60;;
34828;SDS011;21042;47.620;12.188;2023-05-10T09:05:46;3.30;;;0.80;;
34828;SDS011;21042;47.620;12.188;2023-05-10T09:08:14;4.85;;;0.88;;
34828;SDS011;21042;47.620;12.188;2023-05-10T09:10:43;6.93;;;0.75;;
34828;SDS011;21042;47.620;12.188;2023-05-10T09:13:10;2.58;;;0.60;;
34828;SDS011;21042;47.620;12.188;2023-05-10T09:18:04;1.73;;;0.57;;
34828;SDS011;21042;47.620;12.188;2023-05-10T09:20:31;1.92;;;0.50;;
34828;SDS011;21042;47.620;12.188;2023-05-10T09:22:58;3.60;;;0.60;;
34828;SDS011;21042;47.620;12.188;2023-05-10T09:25:25;1.17;;;0.70;;
34828;SDS011;21042;47.620;12.188;2023-05-10T09:27:52;1.80;;;0.95;;
34828;SDS011;21042;47.620;12.188;2023-05-10T09:30:26;7.53;;;1.05;;
34828;SDS011;21042;47.620;12.188;2023-05-10T09:32:54;4.80;;;0.88;;
34828;SDS011;21042;47.620;12.188;2023-05-10T09:35:23;3.53;;;0.95;;
34828;SDS011;21042;47.620;12.188;2023-05-10T09:37:55;4.15;;;1.00;;
34828;SDS011;21042;47.620;12.188;2023-05-10T09:40:24;4.28;;;0.90;;
34828;SDS011;21042;47.620;12.188;2023-05-10T09:42:53;3.03;;;1.00;;
34828;SDS011;21042;47.620;12.188;2023-05-10T09:45:22;2.58;;;0.90;;
34828;SDS011;21042;47.620;12.188;2023-05-10T09:47:50;2.33;;;0.68;;
34828;SDS011;21042;47.620;12.188;2023-05-10T09:50:18;1.35;;;0.88;;
34828;SDS011;21042;47.620;12.188;2023-05-10T09:52:52;2.13;;;0.80;;
34828;SDS011;21042;47.620;12.188;2023-05-10T09:55:21;3.05;;;0.75;;
34828;SDS011;21042;47.620;12.188;2023-05-10T09:57:58;1.27;;;0.70;;
34828;SDS011;21042;47.620;12.188;2023-05-10T10:00:26;4.60;;;0.60;;
34828;SDS011;21042;47.620;12.188;2023-05-10T10:02:54;5.63;;;1.02;;
34828;SDS011;21042;47.620;12.188;2023-05-10T10:05:32;3.25;;;0.82;;
34828;SDS011;21042;47.620;12.188;2023-05-10T10:08:04;4.18;;;1.00;;
34828;SDS011;21042;47.620;12.188;2023-05-10T10:10:32;2.30;;;0.65;;
34828;SDS011;21042;47.620;12.188;2023-05-10T10:12:59;3.38;;;0.70;;
34828;SDS011;21042;47.620;12.188;2023-05-10T10:15:27;3.85;;;0.93;;
34828;SDS011;21042;47.620;12.188;2023-05-10T10:17:54;3.88;;;0.70;;
34828;SDS011;21042;47.620;12.188;2023-05-10T10:20:22;3.05;;;0.60;;
34828;SDS011;21042;47.620;12.188;2023-05-10T10:22:50;2.05;;;0.60;;
34828;SDS011;21042;47.620;12.188;2023-05-10T10:25:17;1.75;;;0.63;;
34828;SDS011;21042;47.620;12.188;2023-05-10T10:35:54;8.18;;;1.20;;
34828;SDS011;21042;47.620;12.188;2023-05-10T10:38:24;4.50;;;0.93;;
34828;SDS011;21042;47.620;12.188;2023-05-10T10:41:10;2.33;;;0.75;;
34828;SDS011;21042;47.620;12.188;2023-05-10T10:47:07;6.30;;;1.33;;
34828;SDS011;21042;47.620;12.188;2023-05-10T10:49:52;7.70;;;0.93;;
34828;SDS011;21042;47.620;12.188;2023-05-10T10:55:13;6.72;;;1.23;;
34828;SDS011;21042;47.620;12.188;2023-05-10T11:03:03;2.03;;;0.80;;
34828;SDS011;21042;47.620;12.188;2023-05-10T11:05:35;4.18;;;1.00;;
34828;SDS011;21042;47.620;12.188;2023-05-10T11:08:45;2.88;;;1.00;;
34828;SDS011;21042;47.620;12.188;2023-05-10T11:16:14;3.28;;;0.80;;
34828;SDS011;21042;47.620;12.188;2023-05-10T11:21:31;2.15;;;0.90;;
34828;SDS011;21042;47.620;12.188;2023-05-10T11:23:59;1.77;;;0.63;;
34828;SDS011;21042;47.620;12.188;2023-05-10T11:26:32;4.85;;;0.90;;
34828;SDS011;21042;47.620;12.188;2023-05-10T11:29:00;1.85;;;0.80;;
34828;SDS011;21042;47.620;12.188;2023-05-10T11:31:29;1.45;;;0.77;;
34828;SDS011;21042;47.620;12.188;2023-05-10T11:33:56;2.78;;;0.70;;
34828;SDS011;21042;47.620;12.188;2023-05-10T11:36:26;5.55;;;0.90;;
34828;SDS011;21042;47.620;12.188;2023-05-10T11:38:54;3.30;;;0.88;;
34828;SDS011;21042;47.620;12.188;2023-05-10T11:41:22;3.45;;;0.63;;
34828;SDS011;21042;47.620;12.188;2023-05-10T11:43:51;1.90;;;0.90;;
34828;SDS011;21042;47.620;12.188;2023-05-10T11:46:19;1.95;;;0.82;;
34828;SDS011;21042;47.620;12.188;2023-05-10T11:48:51;4.32;;;1.20;;
34828;SDS011;21042;47.620;12.188;2023-05-10T11:51:28;1.55;;;1.15;;
34828;SDS011;21042;47.620;12.188;2023-05-10T11:53:55;3.15;;;0.90;;
34828;SDS011;21042;47.620;12.188;2023-05-10T11:56:23;3.22;;;0.88;;
34828;SDS011;21042;47.620;12.188;2023-05-10T11:58:54;1.33;;;1.00;;
34828;SDS011;21042;47.620;12.188;2023-05-10T12:01:23;4.03;;;1.40;;
34828;SDS011;21042;47.620;12.188;2023-05-10T12:03:51;4.50;;;1.30;;
34828;SDS011;21042;47.620;12.188;2023-05-10T12:06:20;5.68;;;1.48;;
34828;SDS011;21042;47.620;12.188;2023-05-10T12:08:47;4.72;;;1.38;;
34828;SDS011;21042;47.620;12.188;2023-05-10T12:11:19;3.95;;;1.17;;
34828;SDS011;21042;47.620;12.188;2023-05-10T12:13:50;0.85;;;0.68;;
34828;SDS011;21042;47.620;12.188;2023-05-10T12:18:52;3.50;;;1.35;;
34828;SDS011;21042;47.620;12.188;2023-05-10T12:21:20;3.10;;;0.90;;
34828;SDS011;21042;47.620;12.188;2023-05-10T12:23:51;1.65;;;0.90;;
34828;SDS011;21042;47.620;12.188;2023-05-10T12:26:22;4.35;;;0.90;;
34828;SDS011;21042;47.620;12.188;2023-05-10T12:28:50;2.25;;;0.80;;
34828;SDS011;21042;47.620;12.188;2023-05-10T12:31:17;5.13;;;0.80;;
34828;SDS011;21042;47.620;12.188;2023-05-10T12:33:44;1.60;;;0.60;;
34828;SDS011;21042;47.620;12.188;2023-05-10T12:36:13;4.32;;;0.60;;
34828;SDS011;21042;47.620;12.188;2023-05-10T12:38:42;2.47;;;0.70;;
34828;SDS011;21042;47.620;12.188;2023-05-10T12:41:10;2.38;;;0.40;;
34828;SDS011;21042;47.620;12.188;2023-05-10T12:43:38;3.40;;;0.68;;
34828;SDS011;21042;47.620;12.188;2023-05-10T12:48:36;2.17;;;0.50;;
34828;SDS011;21042;47.620;12.188;2023-05-10T12:51:04;10.00;;;1.15;;
34828;SDS011;21042;47.620;12.188;2023-05-10T12:53:31;2.22;;;0.70;;
34828;SDS011;21042;47.620;12.188;2023-05-10T12:55:58;4.18;;;0.70;;
34828;SDS011;21042;47.620;12.188;2023-05-10T12:58:24;4.47;;;0.90;;
34828;SDS011;21042;47.620;12.188;2023-05-10T13:01:00;1.67;;;0.63;;
34828;SDS011;21042;47.620;12.188;2023-05-10T13:03:28;4.20;;;0.40;;
34828;SDS011;21042;47.620;12.188;2023-05-10T13:05:54;2.45;;;0.70;;
34828;SDS011;21042;47.620;12.188;2023-05-10T13:08:21;1.98;;;0.50;;
34828;SDS011;21042;47.620;12.188;2023-05-10T13:10:48;2.55;;;0.70;;
34828;SDS011;21042;47.620;12.188;2023-05-10T13:13:15;3.55;;;0.60;;
34828;SDS011;21042;47.620;12.188;2023-05-10T13:15:42;6.85;;;0.85;;
34828;SDS011;21042;47.620;12.188;2023-05-10T13:18:08;2.58;;;0.80;;
34828;SDS011;21042;47.620;12.188;2023-05-10T13:20:35;6.10;;;0.68;;
34828;SDS011;21042;47.620;12.188;2023-05-10T13:23:02;6.32;;;0.80;;
34828;SDS011;21042;47.620;12.188;2023-05-10T13:25:29;3.25;;;0.82;;
34828;SDS011;21042;47.620;12.188;2023-05-10T13:27:56;7.00;;;0.75;;
34828;SDS011;21042;47.620;12.188;2023-05-10T13:30:22;1.58;;;0.68;;
34828;SDS011;21042;47.620;12.188;2023-05-10T13:32:50;9.80;;;1.17;;
34828;SDS011;21042;47.620;12.188;2023-05-10T13:35:16;1.92;;;0.68;;
34828;SDS011;21042;47.620;12.188;2023-05-10T13:37:43;3.13;;;0.60;;
34828;SDS011;21042;47.620;12.188;2023-05-10T13:40:10;3.50;;;0.55;;
34828;SDS011;21042;47.620;12.188;2023-05-10T13:42:37;2.25;;;0.70;;
34828;SDS011;21042;47.620;12.188;2023-05-10T13:45:04;11.48;;;1.05;;
34828;SDS011;21042;47.620;12.188;2023-05-10T13:47:31;1.85;;;0.60;;
34828;SDS011;21042;47.620;12.188;2023-05-10T13:49:59;1.20;;;0.60;;
34828;SDS011;21042;47.620;12.188;2023-05-10T13:52:25;2.08;;;0.63;;
34828;SDS011;21042;47.620;12.188;2023-05-10T13:54:52;3.80;;;0.60;;
34828;SDS011;21042;47.620;12.188;2023-05-10T13:57:21;3.00;;;0.75;;
34828;SDS011;21042;47.620;12.188;2023-05-10T13:59:50;1.30;;;0.50;;
34828;SDS011;21042;47.620;12.188;2023-05-10T14:02:17;6.07;;;0.63;;
34828;SDS011;21042;47.620;12.188;2023-05-10T14:04:44;1.60;;;0.57;;
34828;SDS011;21042;47.620;12.188;2023-05-10T14:07:11;1.73;;;0.50;;
34828;SDS011;21042;47.620;12.188;2023-05-10T14:09:37;1.02;;;0.47;;
34828;SDS011;21042;47.620;12.188;2023-05-10T14:12:04;7.15;;;0.60;;
34828;SDS011;21042;47.620;12.188;2023-05-10T14:14:31;6.40;;;0.80;;
34828;SDS011;21042;47.620;12.188;2023-05-10T14:16:57;7.22;;;1.83;;
34828;SDS011;21042;47.620;12.188;2023-05-10T14:19:25;2.45;;;0.52;;
34828;SDS011;21042;47.620;12.188;2023-05-10T14:21:53;2.83;;;0.68;;
34828;SDS011;21042;47.620;12.188;2023-05-10T14:24:19;2.55;;;0.65;;
34828;SDS011;21042;47.620;12.188;2023-05-10T14:26:46;7.97;;;0.50;;
34828;SDS011;21042;47.620;12.188;2023-05-10T14:29:13;1.65;;;0.70;;
34828;SDS011;21042;47.620;12.188;2023-05-10T14:31:40;2.45;;;0.75;;
34828;SDS011;21042;47.620;12.188;2023-05-10T14:34:06;4.32;;;0.50;;
34828;SDS011;21042;47.620;12.188;2023-05-10T14:36:33;1.88;;;0.70;;
34828;SDS011;21042;47.620;12.188;2023-05-10T14:39:00;7.28;;;1.02;;
34828;SDS011;21042;47.620;12.188;2023-05-10T14:41:26;3.13;;;0.73;;
34828;SDS011;21042;47.620;12.188;2023-05-10T14:43:53;6.60;;;0.70;;
34828;SDS011;21042;47.620;12.188;2023-05-10T14:46:20;3.80;;;0.70;;
34828;SDS011;21042;47.620;12.188;2023-05-10T14:48:47;5.97;;;0.77;;
34828;SDS011;21042;47.620;12.188;2023-05-10T14:51:13;1.35;;;0.57;;
34828;SDS011;21042;47.620;12.188;2023-05-10T14:53:40;4.57;;;0.90;;
34828;SDS011;21042;47.620;12.188;2023-05-10T14:56:07;5.20;;;1.10;;
34828;SDS011;21042;47.620;12.188;2023-05-10T14:58:33;1.67;;;0.63;;
34828;SDS011;21042;47.620;12.188;2023-05-10T15:01:00;7.63;;;1.25;;
34828;SDS011;21042;47.620;12.188;2023-05-10T15:05:55;5.38;;;1.10;;
34828;SDS011;21042;47.620;12.188;2023-05-10T15:08:23;1.88;;;0.80;;
34828;SDS011;21042;47.620;12.188;2023-05-10T15:10:51;3.58;;;0.80;;
34828;SDS011;21042;47.620;12.188;2023-05-10T15:13:17;1.90;;;0.70;;
34828;SDS011;21042;47.620;12.188;2023-05-10T15:15:44;3.05;;;0.70;;
34828;SDS011;21042;47.620;12.188;2023-05-10T15:18:11;1.95;;;0.70;;
34828;SDS011;21042;47.620;12.188;2023-05-10T15:20:38;2.20;;;0.70;;
34828;SDS011;21042;47.620;12.188;2023-05-10T15:23:04;2.13;;;0.68;;
34828;SDS011;21042;47.620;12.188;2023-05-10T15:25:31;2.33;;;0.77;;
34828;SDS011;21042;47.620;12.188;2023-05-10T15:28:01;1.88;;;0.75;;
34828;SDS011;21042;47.620;12.188;2023-05-10T15:30:28;3.63;;;0.70;;
34828;SDS011;21042;47.620;12.188;2023-05-10T15:32:55;3.38;;;0.90;;
34828;SDS011;21042;47.620;12.188;2023-05-10T15:35:22;2.50;;;0.80;;
34828;SDS011;21042;47.620;12.188;2023-05-10T15:37:49;8.75;;;1.23;;
34828;SDS011;21042;47.620;12.188;2023-05-10T15:40:16;4.72;;;1.80;;